CheckWX is a tool to help pilots better visualize weather data.  It is not intended as a substitute for an official pre-flight weather briefing.

02:49:18 UTC

KASN TAF
Talladega Municipal Airport
Talladega, Alabama, USA
KASN 202338Z 2100/2124 09003KT P6SM SKC FM211500 13006KT P6SM FEW050

Sep-21@
00:00 UTC

Sep-21 @ 00:00 UTC

Sep-21@
15:00 UTC

Sep-21 @ 15:00 UTC

KASN 202338Z 2100/2124 09003KT P6SM SKC
Wind
  • 090° at 3 KTS
Cloud Levels
  • Clear skies

Sep-21@
15:00 UTC

Sep-21 @ 15:00 UTC

Sep-22@
00:00 UTC

Sep-22 @ 00:00 UTC

FM211500 13006KT P6SM FEW050

From

From Standard forecast or significant change

Wind
  • 130° at 6 KTS
Cloud Levels
  • Few at 5,000' AGL